Alpha, New Jersey
Current Conditions -  °F | °C
As of 11:51 PM on Friday 31 Oct 2014 (Local Time) from KABE Reporting Station
Overcast Overcast  
Wind Chill: 44°   Ceiling: 4500
Heat Index: 48°   Visibility: 10mi
Dew Point: 38°   Wind: 9mph
Humidity: 68%   Direction: 50°NE
Pressure: 29.86"   Gusts: NA
Location:  40.7083°N, 75.1472°W
Report Text: KABE 010351Z 05008KT 10SM OVC045 09/03 A2986 RMK AO2 RAB0253E31 SLP112 P0000 T00890033
Loading
Personal Weather Stations






























Interactive Weather Map
Tropical Storm Tracking
New forecast layout! Learn more

10-Day Weather Forecast

Advertisements
Track Severe Weather on mobile